sensor_id;sensor_type;location;lat;lon;timestamp;P1;durP1;ratioP1;P2;durP2;ratioP2
21183;SDS011;18176;49.502;11.754;2022-12-18T00:00:33;63.03;;;23.03;;
21183;SDS011;18176;49.502;11.754;2022-12-18T00:04:38;99.50;;;24.70;;
21183;SDS011;18176;49.502;11.754;2022-12-18T00:08:41;79.13;;;24.37;;
21183;SDS011;18176;49.502;11.754;2022-12-18T00:12:43;107.73;;;24.93;;
21183;SDS011;18176;49.502;11.754;2022-12-18T00:16:43;72.07;;;24.57;;
21183;SDS011;18176;49.502;11.754;2022-12-18T00:20:44;101.47;;;25.40;;
21183;SDS011;18176;49.502;11.754;2022-12-18T00:24:47;97.77;;;23.67;;
21183;SDS011;18176;49.502;11.754;2022-12-18T00:28:48;90.60;;;23.80;;
21183;SDS011;18176;49.502;11.754;2022-12-18T00:32:49;65.23;;;23.17;;
21183;SDS011;18176;49.502;11.754;2022-12-18T00:36:49;130.67;;;24.80;;
21183;SDS011;18176;49.502;11.754;2022-12-18T00:40:53;102.83;;;25.27;;
21183;SDS011;18176;49.502;11.754;2022-12-18T00:44:53;98.87;;;24.07;;
21183;SDS011;18176;49.502;11.754;2022-12-18T00:48:53;114.57;;;23.93;;
21183;SDS011;18176;49.502;11.754;2022-12-18T00:52:54;124.80;;;24.87;;
21183;SDS011;18176;49.502;11.754;2022-12-18T00:56:56;81.37;;;24.50;;
21183;SDS011;18176;49.502;11.754;2022-12-18T01:00:57;112.57;;;25.03;;
21183;SDS011;18176;49.502;11.754;2022-12-18T01:04:57;95.10;;;25.20;;
21183;SDS011;18176;49.502;11.754;2022-12-18T01:08:58;103.53;;;25.07;;
21183;SDS011;18176;49.502;11.754;2022-12-18T01:13:01;80.60;;;23.53;;
21183;SDS011;18176;49.502;11.754;2022-12-18T01:17:01;74.97;;;21.53;;
21183;SDS011;18176;49.502;11.754;2022-12-18T01:21:05;66.57;;;21.70;;
21183;SDS011;18176;49.502;11.754;2022-12-18T01:25:08;90.00;;;20.80;;
21183;SDS011;18176;49.502;11.754;2022-12-18T01:29:11;58.57;;;19.33;;
21183;SDS011;18176;49.502;11.754;2022-12-18T01:33:11;97.30;;;20.87;;
21183;SDS011;18176;49.502;11.754;2022-12-18T01:37:11;113.80;;;22.00;;
21183;SDS011;18176;49.502;11.754;2022-12-18T01:41:12;76.23;;;21.30;;
21183;SDS011;18176;49.502;11.754;2022-12-18T01:45:28;71.50;;;20.87;;
21183;SDS011;18176;49.502;11.754;2022-12-18T01:49:31;55.90;;;19.63;;
21183;SDS011;18176;49.502;11.754;2022-12-18T01:53:31;70.97;;;19.90;;
21183;SDS011;18176;49.502;11.754;2022-12-18T01:57:32;57.40;;;19.73;;
21183;SDS011;18176;49.502;11.754;2022-12-18T02:01:36;58.70;;;21.07;;
21183;SDS011;18176;49.502;11.754;2022-12-18T02:05:40;50.23;;;19.97;;
21183;SDS011;18176;49.502;11.754;2022-12-18T02:09:48;49.97;;;18.90;;
21183;SDS011;18176;49.502;11.754;2022-12-18T02:13:59;49.60;;;19.00;;
21183;SDS011;18176;49.502;11.754;2022-12-18T02:18:18;53.10;;;20.07;;
21183;SDS011;18176;49.502;11.754;2022-12-18T02:22:25;52.50;;;19.90;;
21183;SDS011;18176;49.502;11.754;2022-12-18T02:26:37;53.00;;;19.77;;
21183;SDS011;18176;49.502;11.754;2022-12-18T02:30:46;53.33;;;19.00;;
21183;SDS011;18176;49.502;11.754;2022-12-18T02:34:50;56.13;;;18.87;;
21183;SDS011;18176;49.502;11.754;2022-12-18T02:38:56;46.73;;;18.30;;
21183;SDS011;18176;49.502;11.754;2022-12-18T02:43:09;48.07;;;19.73;;
21183;SDS011;18176;49.502;11.754;2022-12-18T02:47:12;52.57;;;19.97;;
21183;SDS011;18176;49.502;11.754;2022-12-18T02:51:17;51.73;;;19.07;;
21183;SDS011;18176;49.502;11.754;2022-12-18T02:55:32;53.70;;;19.33;;
21183;SDS011;18176;49.502;11.754;2022-12-18T02:59:57;51.47;;;19.07;;
21183;SDS011;18176;49.502;11.754;2022-12-18T03:04:06;49.47;;;18.50;;
21183;SDS011;18176;49.502;11.754;2022-12-18T03:08:15;53.63;;;18.90;;
21183;SDS011;18176;49.502;11.754;2022-12-18T03:12:23;46.60;;;18.60;;
21183;SDS011;18176;49.502;11.754;2022-12-18T03:16:33;51.43;;;19.43;;
21183;SDS011;18176;49.502;11.754;2022-12-18T03:20:36;56.13;;;20.07;;
21183;SDS011;18176;49.502;11.754;2022-12-18T03:24:45;52.33;;;19.13;;
21183;SDS011;18176;49.502;11.754;2022-12-18T03:28:49;48.67;;;18.03;;
21183;SDS011;18176;49.502;11.754;2022-12-18T03:32:58;52.17;;;19.37;;
21183;SDS011;18176;49.502;11.754;2022-12-18T03:37:11;51.90;;;18.73;;
21183;SDS011;18176;49.502;11.754;2022-12-18T03:41:15;56.73;;;20.07;;
21183;SDS011;18176;49.502;11.754;2022-12-18T03:45:51;52.67;;;19.10;;
21183;SDS011;18176;49.502;11.754;2022-12-18T03:50:06;51.70;;;19.07;;
21183;SDS011;18176;49.502;11.754;2022-12-18T03:54:17;57.93;;;20.70;;
21183;SDS011;18176;49.502;11.754;2022-12-18T03:58:25;54.20;;;18.93;;
21183;SDS011;18176;49.502;11.754;2022-12-18T04:02:42;51.90;;;18.53;;
21183;SDS011;18176;49.502;11.754;2022-12-18T04:06:55;56.00;;;20.53;;
21183;SDS011;18176;49.502;11.754;2022-12-18T04:10:57;54.10;;;19.70;;
21183;SDS011;18176;49.502;11.754;2022-12-18T04:14:58;56.53;;;20.07;;
21183;SDS011;18176;49.502;11.754;2022-12-18T04:18:58;58.47;;;19.07;;
21183;SDS011;18176;49.502;11.754;2022-12-18T04:23:06;59.63;;;19.90;;
21183;SDS011;18176;49.502;11.754;2022-12-18T04:27:07;48.67;;;18.27;;
21183;SDS011;18176;49.502;11.754;2022-12-18T04:31:12;54.80;;;18.93;;
21183;SDS011;18176;49.502;11.754;2022-12-18T04:35:13;62.20;;;19.83;;
21183;SDS011;18176;49.502;11.754;2022-12-18T04:39:17;59.60;;;19.53;;
21183;SDS011;18176;49.502;11.754;2022-12-18T04:43:19;55.40;;;19.67;;
21183;SDS011;18176;49.502;11.754;2022-12-18T04:47:19;52.10;;;19.70;;
21183;SDS011;18176;49.502;11.754;2022-12-18T04:51:19;57.53;;;19.63;;
21183;SDS011;18176;49.502;11.754;2022-12-18T04:55:27;57.10;;;18.57;;
21183;SDS011;18176;49.502;11.754;2022-12-18T04:59:28;59.33;;;19.50;;
21183;SDS011;18176;49.502;11.754;2022-12-18T05:03:28;61.80;;;19.37;;
21183;SDS011;18176;49.502;11.754;2022-12-18T05:07:28;60.47;;;20.00;;
21183;SDS011;18176;49.502;11.754;2022-12-18T05:11:31;53.40;;;18.77;;
21183;SDS011;18176;49.502;11.754;2022-12-18T05:15:31;56.93;;;20.10;;
21183;SDS011;18176;49.502;11.754;2022-12-18T05:19:33;57.00;;;19.50;;
21183;SDS011;18176;49.502;11.754;2022-12-18T05:23:33;49.93;;;18.00;;
21183;SDS011;18176;49.502;11.754;2022-12-18T05:27:37;51.63;;;18.80;;
21183;SDS011;18176;49.502;11.754;2022-12-18T05:31:37;49.13;;;17.57;;
21183;SDS011;18176;49.502;11.754;2022-12-18T05:35:39;55.57;;;18.50;;
21183;SDS011;18176;49.502;11.754;2022-12-18T05:39:39;48.37;;;18.57;;
21183;SDS011;18176;49.502;11.754;2022-12-18T05:43:44;49.47;;;17.40;;
21183;SDS011;18176;49.502;11.754;2022-12-18T05:47:44;59.30;;;16.40;;
21183;SDS011;18176;49.502;11.754;2022-12-18T05:51:44;49.87;;;16.80;;
21183;SDS011;18176;49.502;11.754;2022-12-18T05:55:44;45.93;;;15.50;;
21183;SDS011;18176;49.502;11.754;2022-12-18T05:59:48;56.00;;;17.20;;
21183;SDS011;18176;49.502;11.754;2022-12-18T06:03:48;45.13;;;16.80;;
21183;SDS011;18176;49.502;11.754;2022-12-18T06:07:48;51.80;;;16.60;;
21183;SDS011;18176;49.502;11.754;2022-12-18T06:11:49;43.53;;;15.70;;
21183;SDS011;18176;49.502;11.754;2022-12-18T06:15:54;39.80;;;14.93;;
21183;SDS011;18176;49.502;11.754;2022-12-18T06:19:54;44.20;;;15.57;;
21183;SDS011;18176;49.502;11.754;2022-12-18T06:23:54;49.60;;;16.93;;
21183;SDS011;18176;49.502;11.754;2022-12-18T06:27:54;46.17;;;16.77;;
21183;SDS011;18176;49.502;11.754;2022-12-18T06:31:57;48.50;;;16.23;;
21183;SDS011;18176;49.502;11.754;2022-12-18T06:35:59;44.10;;;16.43;;
21183;SDS011;18176;49.502;11.754;2022-12-18T06:40:01;52.87;;;17.37;;
21183;SDS011;18176;49.502;11.754;2022-12-18T06:44:03;45.57;;;17.37;;
21183;SDS011;18176;49.502;11.754;2022-12-18T06:48:05;40.60;;;14.47;;
21183;SDS011;18176;49.502;11.754;2022-12-18T06:52:06;39.20;;;14.97;;
21183;SDS011;18176;49.502;11.754;2022-12-18T06:56:06;40.43;;;14.13;;
21183;SDS011;18176;49.502;11.754;2022-12-18T07:00:07;45.10;;;17.43;;
21183;SDS011;18176;49.502;11.754;2022-12-18T07:04:11;43.97;;;17.70;;
21183;SDS011;18176;49.502;11.754;2022-12-18T07:08:11;50.57;;;16.37;;
21183;SDS011;18176;49.502;11.754;2022-12-18T07:12:11;45.60;;;16.90;;
21183;SDS011;18176;49.502;11.754;2022-12-18T07:16:12;48.40;;;15.63;;
21183;SDS011;18176;49.502;11.754;2022-12-18T07:20:23;42.70;;;16.47;;
21183;SDS011;18176;49.502;11.754;2022-12-18T07:24:23;48.67;;;17.33;;
21183;SDS011;18176;49.502;11.754;2022-12-18T07:28:23;47.47;;;17.23;;
21183;SDS011;18176;49.502;11.754;2022-12-18T07:32:23;51.53;;;18.03;;
21183;SDS011;18176;49.502;11.754;2022-12-18T07:36:26;50.73;;;17.77;;
21183;SDS011;18176;49.502;11.754;2022-12-18T07:40:26;45.97;;;17.57;;
21183;SDS011;18176;49.502;11.754;2022-12-18T07:44:27;45.13;;;16.93;;
21183;SDS011;18176;49.502;11.754;2022-12-18T07:48:27;44.23;;;16.17;;
21183;SDS011;18176;49.502;11.754;2022-12-18T07:52:30;40.57;;;15.77;;
21183;SDS011;18176;49.502;11.754;2022-12-18T07:56:30;39.40;;;15.57;;
21183;SDS011;18176;49.502;11.754;2022-12-18T08:00:30;40.97;;;15.60;;
21183;SDS011;18176;49.502;11.754;2022-12-18T08:04:31;45.13;;;15.23;;
21183;SDS011;18176;49.502;11.754;2022-12-18T08:08:33;38.60;;;15.67;;
21183;SDS011;18176;49.502;11.754;2022-12-18T08:12:34;37.20;;;15.77;;
21183;SDS011;18176;49.502;11.754;2022-12-18T08:16:35;43.10;;;15.20;;
21183;SDS011;18176;49.502;11.754;2022-12-18T08:20:36;44.20;;;17.50;;
21183;SDS011;18176;49.502;11.754;2022-12-18T08:24:40;43.40;;;16.33;;
21183;SDS011;18176;49.502;11.754;2022-12-18T08:28:41;42.50;;;16.70;;
21183;SDS011;18176;49.502;11.754;2022-12-18T08:32:41;39.37;;;15.37;;
21183;SDS011;18176;49.502;11.754;2022-12-18T08:36:42;39.97;;;15.83;;
21183;SDS011;18176;49.502;11.754;2022-12-18T08:40:44;38.20;;;15.63;;
21183;SDS011;18176;49.502;11.754;2022-12-18T08:44:45;40.73;;;15.67;;
21183;SDS011;18176;49.502;11.754;2022-12-18T08:48:45;33.90;;;13.83;;
21183;SDS011;18176;49.502;11.754;2022-12-18T08:52:46;34.07;;;14.97;;
21183;SDS011;18176;49.502;11.754;2022-12-18T08:56:48;36.30;;;15.80;;
21183;SDS011;18176;49.502;11.754;2022-12-18T09:00:48;30.63;;;13.43;;
21183;SDS011;18176;49.502;11.754;2022-12-18T09:04:49;39.17;;;16.10;;
21183;SDS011;18176;49.502;11.754;2022-12-18T09:08:53;35.83;;;14.77;;
21183;SDS011;18176;49.502;11.754;2022-12-18T09:12:55;27.90;;;12.73;;
21183;SDS011;18176;49.502;11.754;2022-12-18T09:16:56;41.23;;;17.83;;
21183;SDS011;18176;49.502;11.754;2022-12-18T09:20:56;30.43;;;13.07;;
21183;SDS011;18176;49.502;11.754;2022-12-18T09:24:56;28.77;;;13.40;;
21183;SDS011;18176;49.502;11.754;2022-12-18T09:28:59;30.03;;;13.87;;
21183;SDS011;18176;49.502;11.754;2022-12-18T09:32:59;35.07;;;14.47;;
21183;SDS011;18176;49.502;11.754;2022-12-18T09:37:02;33.40;;;14.57;;
21183;SDS011;18176;49.502;11.754;2022-12-18T09:41:03;34.50;;;14.40;;
21183;SDS011;18176;49.502;11.754;2022-12-18T09:45:27;32.97;;;13.83;;
21183;SDS011;18176;49.502;11.754;2022-12-18T09:49:39;32.43;;;14.50;;
21183;SDS011;18176;49.502;11.754;2022-12-18T09:53:44;30.07;;;13.77;;
21183;SDS011;18176;49.502;11.754;2022-12-18T09:57:52;32.10;;;14.07;;
21183;SDS011;18176;49.502;11.754;2022-12-18T10:02:01;32.13;;;13.67;;
21183;SDS011;18176;49.502;11.754;2022-12-18T10:06:18;32.67;;;14.23;;
21183;SDS011;18176;49.502;11.754;2022-12-18T10:10:27;26.10;;;11.80;;
21183;SDS011;18176;49.502;11.754;2022-12-18T10:14:40;29.03;;;12.97;;
21183;SDS011;18176;49.502;11.754;2022-12-18T10:18:57;28.87;;;12.73;;
21183;SDS011;18176;49.502;11.754;2022-12-18T10:23:18;41.43;;;17.17;;
21183;SDS011;18176;49.502;11.754;2022-12-18T10:27:30;26.90;;;12.20;;
21183;SDS011;18176;49.502;11.754;2022-12-18T10:31:31;25.77;;;12.17;;
21183;SDS011;18176;49.502;11.754;2022-12-18T10:35:35;31.20;;;14.00;;
21183;SDS011;18176;49.502;11.754;2022-12-18T10:39:36;27.20;;;12.43;;
21183;SDS011;18176;49.502;11.754;2022-12-18T10:43:37;27.17;;;12.10;;
21183;SDS011;18176;49.502;11.754;2022-12-18T10:47:41;29.97;;;12.37;;
21183;SDS011;18176;49.502;11.754;2022-12-18T10:51:47;30.97;;;12.03;;
21183;SDS011;18176;49.502;11.754;2022-12-18T10:55:48;29.40;;;12.67;;
21183;SDS011;18176;49.502;11.754;2022-12-18T10:59:51;27.97;;;12.57;;
21183;SDS011;18176;49.502;11.754;2022-12-18T11:04:00;28.40;;;12.50;;
21183;SDS011;18176;49.502;11.754;2022-12-18T11:08:12;31.37;;;13.30;;
21183;SDS011;18176;49.502;11.754;2022-12-18T11:12:21;29.87;;;13.33;;
21183;SDS011;18176;49.502;11.754;2022-12-18T11:16:22;29.13;;;12.90;;
21183;SDS011;18176;49.502;11.754;2022-12-18T11:20:26;30.63;;;13.07;;
21183;SDS011;18176;49.502;11.754;2022-12-18T11:24:36;28.53;;;13.50;;
21183;SDS011;18176;49.502;11.754;2022-12-18T11:28:38;32.30;;;14.43;;
21183;SDS011;18176;49.502;11.754;2022-12-18T11:32:42;30.67;;;14.03;;
21183;SDS011;18176;49.502;11.754;2022-12-18T11:36:46;30.70;;;13.93;;
21183;SDS011;18176;49.502;11.754;2022-12-18T11:40:51;33.90;;;14.47;;
21183;SDS011;18176;49.502;11.754;2022-12-18T11:45:00;32.37;;;13.50;;
21183;SDS011;18176;49.502;11.754;2022-12-18T11:49:20;32.20;;;14.47;;
21183;SDS011;18176;49.502;11.754;2022-12-18T11:53:26;30.83;;;14.33;;
21183;SDS011;18176;49.502;11.754;2022-12-18T11:57:34;31.80;;;14.17;;
21183;SDS011;18176;49.502;11.754;2022-12-18T12:01:48;33.37;;;15.50;;
21183;SDS011;18176;49.502;11.754;2022-12-18T12:05:57;33.30;;;14.33;;
21183;SDS011;18176;49.502;11.754;2022-12-18T12:10:18;34.37;;;15.17;;
21183;SDS011;18176;49.502;11.754;2022-12-18T12:14:42;33.57;;;15.20;;
21183;SDS011;18176;49.502;11.754;2022-12-18T12:19:02;32.13;;;14.77;;
21183;SDS011;18176;49.502;11.754;2022-12-18T12:23:24;33.80;;;14.70;;
21183;SDS011;18176;49.502;11.754;2022-12-18T12:27:37;38.07;;;15.57;;
21183;SDS011;18176;49.502;11.754;2022-12-18T12:31:55;31.50;;;14.77;;
21183;SDS011;18176;49.502;11.754;2022-12-18T12:36:13;34.50;;;17.07;;
21183;SDS011;18176;49.502;11.754;2022-12-18T12:40:37;34.93;;;14.57;;
21183;SDS011;18176;49.502;11.754;2022-12-18T12:44:53;35.50;;;14.47;;
21183;SDS011;18176;49.502;11.754;2022-12-18T12:49:02;33.63;;;14.83;;
21183;SDS011;18176;49.502;11.754;2022-12-18T12:53:09;32.90;;;15.10;;
21183;SDS011;18176;49.502;11.754;2022-12-18T12:57:23;35.83;;;15.70;;
21183;SDS011;18176;49.502;11.754;2022-12-18T13:01:34;37.40;;;14.50;;
21183;SDS011;18176;49.502;11.754;2022-12-18T13:05:51;36.43;;;15.53;;
21183;SDS011;18176;49.502;11.754;2022-12-18T13:10:11;37.77;;;16.07;;
21183;SDS011;18176;49.502;11.754;2022-12-18T13:14:34;34.43;;;15.03;;
21183;SDS011;18176;49.502;11.754;2022-12-18T13:18:37;33.10;;;14.70;;
21183;SDS011;18176;49.502;11.754;2022-12-18T13:22:43;32.80;;;13.77;;
21183;SDS011;18176;49.502;11.754;2022-12-18T13:26:46;33.30;;;14.90;;
21183;SDS011;18176;49.502;11.754;2022-12-18T13:30:47;33.30;;;14.93;;
21183;SDS011;18176;49.502;11.754;2022-12-18T13:39:40;36.67;;;16.30;;
21183;SDS011;18176;49.502;11.754;2022-12-18T13:43:40;36.93;;;15.63;;
21183;SDS011;18176;49.502;11.754;2022-12-18T13:47:46;32.27;;;14.27;;
21183;SDS011;18176;49.502;11.754;2022-12-18T13:51:48;36.80;;;15.80;;
21183;SDS011;18176;49.502;11.754;2022-12-18T13:55:55;34.37;;;15.00;;
21183;SDS011;18176;49.502;11.754;2022-12-18T13:59:56;33.73;;;15.13;;
21183;SDS011;18176;49.502;11.754;2022-12-18T14:04:08;35.50;;;15.67;;
21183;SDS011;18176;49.502;11.754;2022-12-18T14:08:12;34.17;;;15.13;;
21183;SDS011;18176;49.502;11.754;2022-12-18T14:12:18;36.20;;;15.00;;
21183;SDS011;18176;49.502;11.754;2022-12-18T14:16:34;34.30;;;14.47;;
21183;SDS011;18176;49.502;11.754;2022-12-18T14:20:36;31.07;;;14.57;;
21183;SDS011;18176;49.502;11.754;2022-12-18T14:25:04;32.97;;;14.77;;
21183;SDS011;18176;49.502;11.754;2022-12-18T14:29:21;37.97;;;15.83;;
21183;SDS011;18176;49.502;11.754;2022-12-18T14:33:26;40.40;;;16.07;;
21183;SDS011;18176;49.502;11.754;2022-12-18T14:37:27;37.13;;;15.23;;
21183;SDS011;18176;49.502;11.754;2022-12-18T14:41:27;34.50;;;14.83;;
21183;SDS011;18176;49.502;11.754;2022-12-18T14:45:39;31.37;;;15.27;;
21183;SDS011;18176;49.502;11.754;2022-12-18T14:49:43;36.80;;;15.93;;
21183;SDS011;18176;49.502;11.754;2022-12-18T14:53:44;39.13;;;16.43;;
21183;SDS011;18176;49.502;11.754;2022-12-18T14:57:50;34.47;;;16.10;;
21183;SDS011;18176;49.502;11.754;2022-12-18T15:02:00;36.80;;;15.23;;
21183;SDS011;18176;49.502;11.754;2022-12-18T15:06:17;34.03;;;15.70;;
21183;SDS011;18176;49.502;11.754;2022-12-18T15:10:27;35.20;;;16.73;;
21183;SDS011;18176;49.502;11.754;2022-12-18T15:14:33;38.67;;;17.80;;
21183;SDS011;18176;49.502;11.754;2022-12-18T15:18:41;35.33;;;16.53;;
21183;SDS011;18176;49.502;11.754;2022-12-18T15:22:44;32.87;;;14.67;;
21183;SDS011;18176;49.502;11.754;2022-12-18T15:26:47;35.43;;;15.53;;
21183;SDS011;18176;49.502;11.754;2022-12-18T15:35:25;36.70;;;15.77;;
21183;SDS011;18176;49.502;11.754;2022-12-18T15:39:25;41.80;;;19.57;;
21183;SDS011;18176;49.502;11.754;2022-12-18T15:43:26;37.73;;;16.37;;
21183;SDS011;18176;49.502;11.754;2022-12-18T15:47:36;36.50;;;15.63;;
21183;SDS011;18176;49.502;11.754;2022-12-18T15:51:38;35.43;;;15.70;;
21183;SDS011;18176;49.502;11.754;2022-12-18T15:55:41;38.87;;;16.37;;
21183;SDS011;18176;49.502;11.754;2022-12-18T15:59:56;36.63;;;16.43;;
21183;SDS011;18176;49.502;11.754;2022-12-18T16:04:00;33.23;;;14.43;;
21183;SDS011;18176;49.502;11.754;2022-12-18T16:08:03;32.70;;;14.97;;
21183;SDS011;18176;49.502;11.754;2022-12-18T16:12:03;38.10;;;16.10;;
21183;SDS011;18176;49.502;11.754;2022-12-18T16:16:04;35.23;;;15.10;;
21183;SDS011;18176;49.502;11.754;2022-12-18T16:20:11;34.20;;;15.40;;
21183;SDS011;18176;49.502;11.754;2022-12-18T16:24:17;38.30;;;17.67;;
21183;SDS011;18176;49.502;11.754;2022-12-18T16:28:20;67.47;;;30.23;;
21183;SDS011;18176;49.502;11.754;2022-12-18T16:32:20;41.33;;;17.90;;
21183;SDS011;18176;49.502;11.754;2022-12-18T16:36:21;39.33;;;15.60;;
21183;SDS011;18176;49.502;11.754;2022-12-18T16:40:24;25.30;;;12.53;;
21183;SDS011;18176;49.502;11.754;2022-12-18T16:44:24;32.33;;;14.27;;
21183;SDS011;18176;49.502;11.754;2022-12-18T16:48:25;33.00;;;13.53;;
21183;SDS011;18176;49.502;11.754;2022-12-18T16:52:29;28.60;;;13.33;;
21183;SDS011;18176;49.502;11.754;2022-12-18T16:56:33;26.73;;;12.33;;
21183;SDS011;18176;49.502;11.754;2022-12-18T17:00:34;26.87;;;12.17;;
21183;SDS011;18176;49.502;11.754;2022-12-18T17:04:36;32.80;;;12.63;;
21183;SDS011;18176;49.502;11.754;2022-12-18T17:08:37;27.90;;;12.53;;
21183;SDS011;18176;49.502;11.754;2022-12-18T17:12:40;29.77;;;12.80;;
21183;SDS011;18176;49.502;11.754;2022-12-18T17:16:40;28.70;;;13.13;;
21183;SDS011;18176;49.502;11.754;2022-12-18T17:20:41;33.87;;;14.77;;
21183;SDS011;18176;49.502;11.754;2022-12-18T17:24:41;35.63;;;15.67;;
21183;SDS011;18176;49.502;11.754;2022-12-18T17:28:44;30.97;;;13.80;;
21183;SDS011;18176;49.502;11.754;2022-12-18T17:32:44;30.33;;;13.33;;
21183;SDS011;18176;49.502;11.754;2022-12-18T17:36:44;29.93;;;13.10;;
21183;SDS011;18176;49.502;11.754;2022-12-18T17:40:44;29.00;;;13.63;;
21183;SDS011;18176;49.502;11.754;2022-12-18T17:44:48;27.93;;;13.40;;
21183;SDS011;18176;49.502;11.754;2022-12-18T17:48:49;32.20;;;14.20;;
21183;SDS011;18176;49.502;11.754;2022-12-18T17:52:50;29.37;;;13.40;;
21183;SDS011;18176;49.502;11.754;2022-12-18T17:56:54;31.63;;;13.53;;
21183;SDS011;18176;49.502;11.754;2022-12-18T18:00:59;31.77;;;14.77;;
21183;SDS011;18176;49.502;11.754;2022-12-18T18:05:00;35.03;;;15.93;;
21183;SDS011;18176;49.502;11.754;2022-12-18T18:09:01;31.73;;;13.33;;
21183;SDS011;18176;49.502;11.754;2022-12-18T18:13:03;30.13;;;13.07;;
21183;SDS011;18176;49.502;11.754;2022-12-18T18:17:19;32.53;;;14.07;;
21183;SDS011;18176;49.502;11.754;2022-12-18T18:21:19;30.67;;;13.33;;
21183;SDS011;18176;49.502;11.754;2022-12-18T18:25:20;29.43;;;13.20;;
21183;SDS011;18176;49.502;11.754;2022-12-18T18:29:22;32.83;;;14.63;;
21183;SDS011;18176;49.502;11.754;2022-12-18T18:33:28;39.90;;;15.53;;
21183;SDS011;18176;49.502;11.754;2022-12-18T18:37:28;34.70;;;15.40;;
21183;SDS011;18176;49.502;11.754;2022-12-18T18:41:28;38.17;;;15.60;;
21183;SDS011;18176;49.502;11.754;2022-12-18T18:45:29;39.40;;;16.07;;
21183;SDS011;18176;49.502;11.754;2022-12-18T18:49:32;38.53;;;16.63;;
21183;SDS011;18176;49.502;11.754;2022-12-18T18:53:34;38.97;;;16.77;;
21183;SDS011;18176;49.502;11.754;2022-12-18T18:57:36;39.77;;;16.67;;
21183;SDS011;18176;49.502;11.754;2022-12-18T19:01:37;40.57;;;16.80;;
21183;SDS011;18176;49.502;11.754;2022-12-18T19:05:40;41.17;;;16.93;;
21183;SDS011;18176;49.502;11.754;2022-12-18T19:09:43;34.87;;;16.53;;
21183;SDS011;18176;49.502;11.754;2022-12-18T19:13:47;40.37;;;16.47;;
21183;SDS011;18176;49.502;11.754;2022-12-18T19:17:47;42.10;;;17.20;;
21183;SDS011;18176;49.502;11.754;2022-12-18T19:21:51;42.47;;;18.37;;
21183;SDS011;18176;49.502;11.754;2022-12-18T19:25:51;41.50;;;17.60;;
21183;SDS011;18176;49.502;11.754;2022-12-18T19:30:12;43.30;;;17.30;;
21183;SDS011;18176;49.502;11.754;2022-12-18T19:34:12;43.27;;;17.90;;
21183;SDS011;18176;49.502;11.754;2022-12-18T19:38:15;46.07;;;18.93;;
21183;SDS011;18176;49.502;11.754;2022-12-18T19:42:15;41.40;;;17.97;;
21183;SDS011;18176;49.502;11.754;2022-12-18T19:46:24;44.70;;;18.47;;
21183;SDS011;18176;49.502;11.754;2022-12-18T19:50:25;52.30;;;21.77;;
21183;SDS011;18176;49.502;11.754;2022-12-18T19:54:30;47.13;;;20.20;;
21183;SDS011;18176;49.502;11.754;2022-12-18T19:58:30;46.60;;;19.67;;
21183;SDS011;18176;49.502;11.754;2022-12-18T20:02:31;43.50;;;19.60;;
21183;SDS011;18176;49.502;11.754;2022-12-18T20:06:33;45.03;;;18.90;;
21183;SDS011;18176;49.502;11.754;2022-12-18T20:10:46;52.30;;;18.63;;
21183;SDS011;18176;49.502;11.754;2022-12-18T20:14:46;49.10;;;21.03;;
21183;SDS011;18176;49.502;11.754;2022-12-18T20:18:47;47.93;;;19.57;;
21183;SDS011;18176;49.502;11.754;2022-12-18T20:22:48;48.90;;;17.80;;
21183;SDS011;18176;49.502;11.754;2022-12-18T20:26:51;52.70;;;19.47;;
21183;SDS011;18176;49.502;11.754;2022-12-18T20:30:57;44.70;;;18.53;;
21183;SDS011;18176;49.502;11.754;2022-12-18T20:34:58;47.40;;;19.57;;
21183;SDS011;18176;49.502;11.754;2022-12-18T20:39:01;48.53;;;19.70;;
21183;SDS011;18176;49.502;11.754;2022-12-18T20:43:13;49.67;;;19.40;;
21183;SDS011;18176;49.502;11.754;2022-12-18T20:47:17;45.17;;;19.43;;
21183;SDS011;18176;49.502;11.754;2022-12-18T20:51:18;48.17;;;19.40;;
21183;SDS011;18176;49.502;11.754;2022-12-18T20:55:19;46.20;;;19.43;;
21183;SDS011;18176;49.502;11.754;2022-12-18T20:59:22;49.87;;;22.70;;
21183;SDS011;18176;49.502;11.754;2022-12-18T21:03:24;47.90;;;20.83;;
21183;SDS011;18176;49.502;11.754;2022-12-18T21:07:24;51.20;;;19.83;;
21183;SDS011;18176;49.502;11.754;2022-12-18T21:11:26;48.33;;;19.03;;
21183;SDS011;18176;49.502;11.754;2022-12-18T21:15:44;47.40;;;20.33;;
21183;SDS011;18176;49.502;11.754;2022-12-18T21:19:45;50.27;;;19.40;;
21183;SDS011;18176;49.502;11.754;2022-12-18T21:23:45;51.77;;;20.10;;
21183;SDS011;18176;49.502;11.754;2022-12-18T21:27:46;46.60;;;19.43;;
21183;SDS011;18176;49.502;11.754;2022-12-18T21:31:49;47.17;;;20.20;;
21183;SDS011;18176;49.502;11.754;2022-12-18T21:35:51;52.27;;;20.80;;
21183;SDS011;18176;49.502;11.754;2022-12-18T21:39:51;48.67;;;19.73;;
21183;SDS011;18176;49.502;11.754;2022-12-18T21:43:51;53.17;;;20.67;;
21183;SDS011;18176;49.502;11.754;2022-12-18T21:48:06;49.33;;;20.83;;
21183;SDS011;18176;49.502;11.754;2022-12-18T21:52:07;47.23;;;19.60;;
21183;SDS011;18176;49.502;11.754;2022-12-18T21:56:07;54.33;;;20.67;;
21183;SDS011;18176;49.502;11.754;2022-12-18T22:00:10;50.33;;;20.43;;
21183;SDS011;18176;49.502;11.754;2022-12-18T22:04:18;51.97;;;21.23;;
21183;SDS011;18176;49.502;11.754;2022-12-18T22:08:21;50.17;;;20.17;;
21183;SDS011;18176;49.502;11.754;2022-12-18T22:12:21;50.83;;;20.67;;
21183;SDS011;18176;49.502;11.754;2022-12-18T22:16:40;52.20;;;21.07;;
21183;SDS011;18176;49.502;11.754;2022-12-18T22:20:44;52.23;;;20.67;;
21183;SDS011;18176;49.502;11.754;2022-12-18T22:24:44;54.67;;;21.97;;
21183;SDS011;18176;49.502;11.754;2022-12-18T22:28:44;54.73;;;22.33;;
21183;SDS011;18176;49.502;11.754;2022-12-18T22:32:57;56.00;;;22.47;;
21183;SDS011;18176;49.502;11.754;2022-12-18T22:37:00;54.17;;;21.73;;
21183;SDS011;18176;49.502;11.754;2022-12-18T22:41:00;53.80;;;22.10;;
21183;SDS011;18176;49.502;11.754;2022-12-18T22:45:00;59.63;;;23.27;;
21183;SDS011;18176;49.502;11.754;2022-12-18T22:49:01;58.97;;;23.77;;
21183;SDS011;18176;49.502;11.754;2022-12-18T22:53:04;64.77;;;24.90;;
21183;SDS011;18176;49.502;11.754;2022-12-18T22:57:06;60.17;;;23.83;;
21183;SDS011;18176;49.502;11.754;2022-12-18T23:01:13;61.43;;;23.13;;
21183;SDS011;18176;49.502;11.754;2022-12-18T23:05:19;59.23;;;23.60;;
21183;SDS011;18176;49.502;11.754;2022-12-18T23:09:22;58.10;;;23.70;;
21183;SDS011;18176;49.502;11.754;2022-12-18T23:13:22;59.03;;;24.30;;
21183;SDS011;18176;49.502;11.754;2022-12-18T23:17:22;62.47;;;25.23;;
21183;SDS011;18176;49.502;11.754;2022-12-18T23:21:22;59.63;;;23.50;;
21183;SDS011;18176;49.502;11.754;2022-12-18T23:25:27;59.70;;;23.83;;
21183;SDS011;18176;49.502;11.754;2022-12-18T23:29:27;62.60;;;24.10;;
21183;SDS011;18176;49.502;11.754;2022-12-18T23:33:27;66.27;;;25.23;;
21183;SDS011;18176;49.502;11.754;2022-12-18T23:37:27;62.53;;;24.33;;